createdAt,value
2022-11-05T00:00:03.395Z,7.70
2022-11-05T00:02:50.415Z,7.60
2022-11-05T00:05:37.527Z,7.50
2022-11-05T00:08:35.200Z,7.40
2022-11-05T00:11:03.309Z,7.30
2022-11-05T00:13:48.967Z,7.30
2022-11-05T00:16:34.447Z,7.30
2022-11-05T00:19:08.947Z,7.20
2022-11-05T00:21:57.703Z,7.10
2022-11-05T00:24:43.586Z,7.00
2022-11-05T00:27:12.212Z,6.90
2022-11-05T00:29:40.340Z,6.80
2022-11-05T00:32:08.542Z,6.80
2022-11-05T00:34:36.551Z,6.80
2022-11-05T00:37:05.967Z,6.70
2022-11-05T00:39:34.074Z,6.70
2022-11-05T00:42:19.635Z,6.70
2022-11-05T00:45:02.785Z,6.70
2022-11-05T00:47:55.885Z,6.70
2022-11-05T00:50:24.136Z,6.70
2022-11-05T00:52:57.979Z,6.70
2022-11-05T00:55:29.245Z,6.80
2022-11-05T00:57:58.192Z,6.90
2022-11-05T01:00:28.751Z,6.90
2022-11-05T01:02:59.954Z,6.90
2022-11-05T01:05:28.299Z,7.00
2022-11-05T01:07:57.979Z,6.90
2022-11-05T01:10:26.368Z,7.00
2022-11-05T01:12:54.517Z,7.10
2022-11-05T01:15:22.892Z,7.10
2022-11-05T01:17:52.331Z,7.20
2022-11-05T01:20:20.452Z,7.80
2022-11-05T01:22:48.709Z,7.30
2022-11-05T01:25:18.274Z,7.40
2022-11-05T01:27:46.597Z,7.40
2022-11-05T01:30:15.086Z,7.40
2022-11-05T01:32:43.154Z,7.50
2022-11-05T01:35:14.514Z,7.50
2022-11-05T01:37:42.694Z,7.50
2022-11-05T01:40:13.177Z,7.50
2022-11-05T01:42:42.711Z,7.50
2022-11-05T01:45:14.885Z,7.60
2022-11-05T01:47:58.611Z,7.50
2022-11-05T01:50:38.381Z,7.60
2022-11-05T01:53:13.759Z,7.50
2022-11-05T01:55:45.821Z,7.60
2022-11-05T01:58:19.031Z,7.50
2022-11-05T02:00:47.172Z,7.50
2022-11-05T02:03:17.581Z,7.60
2022-11-05T02:05:46.792Z,7.60
2022-11-05T02:08:23.593Z,7.60
2022-11-05T02:10:52.189Z,7.60
2022-11-05T02:13:21.570Z,7.60
2022-11-05T02:15:59.792Z,7.70
2022-11-05T02:18:40.981Z,7.60
2022-11-05T02:21:37.784Z,7.70
2022-11-05T02:24:31.970Z,7.80
2022-11-05T02:27:19.801Z,7.60
2022-11-05T02:30:12.131Z,7.60
2022-11-05T02:33:04.501Z,7.60
2022-11-05T02:35:46.856Z,7.60
2022-11-05T02:38:27.067Z,7.50
2022-11-05T02:41:06.109Z,7.50
2022-11-05T02:43:45.382Z,7.50
2022-11-05T02:46:26.624Z,7.50
2022-11-05T02:49:00.235Z,7.50
2022-11-05T02:51:34.050Z,7.60
2022-11-05T02:54:10.391Z,7.40
2022-11-05T02:56:42.646Z,7.50
2022-11-05T02:59:10.695Z,7.40
2022-11-05T03:01:40.463Z,7.40
2022-11-05T03:04:12.822Z,7.40
2022-11-05T03:07:13.030Z,7.40
2022-11-05T03:10:10.174Z,7.40
2022-11-05T03:12:46.006Z,7.40
2022-11-05T03:15:25.394Z,7.40
2022-11-05T03:18:02.816Z,7.40
2022-11-05T03:20:38.583Z,7.80
2022-11-05T03:23:15.845Z,7.50
2022-11-05T03:25:49.848Z,7.50
2022-11-05T03:28:22.105Z,7.50
2022-11-05T03:30:52.297Z,7.50
2022-11-05T03:33:24.819Z,7.60
2022-11-05T03:35:56.386Z,7.60
2022-11-05T03:38:29.002Z,7.60
2022-11-05T03:41:00.933Z,7.60
2022-11-05T03:43:34.142Z,7.70
2022-11-05T03:46:05.865Z,7.60
2022-11-05T03:48:39.330Z,7.60
2022-11-05T03:51:13.655Z,7.60
2022-11-05T03:53:47.062Z,7.60
2022-11-05T03:56:21.650Z,7.70
2022-11-05T03:58:54.647Z,7.60
2022-11-05T04:01:26.253Z,7.70
2022-11-05T04:03:54.592Z,7.60
2022-11-05T04:06:41.454Z,7.60
2022-11-05T04:09:28.847Z,7.60
2022-11-05T04:12:14.229Z,7.70
2022-11-05T04:14:42.298Z,7.60
2022-11-05T04:17:09.587Z,7.60
2022-11-05T04:19:56.881Z,7.60
2022-11-05T04:22:45.039Z,7.60
2022-11-05T04:25:13.857Z,7.70
2022-11-05T04:27:41.930Z,7.60
2022-11-05T04:30:18.694Z,7.70
2022-11-05T04:33:01.232Z,7.70
2022-11-05T04:35:31.718Z,7.70
2022-11-05T04:38:01.777Z,7.80
2022-11-05T04:40:30.318Z,7.60
2022-11-05T04:42:58.958Z,7.60
2022-11-05T04:45:29.280Z,7.60
2022-11-05T04:47:57.322Z,7.60
2022-11-05T04:50:25.489Z,7.60
2022-11-05T04:52:53.518Z,7.70
2022-11-05T04:55:23.191Z,7.70
2022-11-05T04:57:52.668Z,7.60
2022-11-05T05:00:22.901Z,7.60
2022-11-05T05:02:50.956Z,7.80
2022-11-05T05:05:19.173Z,7.70
2022-11-05T05:07:47.212Z,7.60
2022-11-05T05:10:15.215Z,7.60
2022-11-05T05:12:44.631Z,7.70
2022-11-05T05:15:12.686Z,7.70
2022-11-05T05:17:40.756Z,7.70
2022-11-05T05:20:26.799Z,7.70
2022-11-05T05:22:55.698Z,7.60
2022-11-05T05:25:24.202Z,7.60
2022-11-05T05:27:53.660Z,7.60
2022-11-05T05:30:21.702Z,7.60
2022-11-05T05:32:49.817Z,7.60
2022-11-05T05:35:18.217Z,7.60
2022-11-05T05:37:46.248Z,7.60
2022-11-05T05:40:14.294Z,7.60
2022-11-05T05:42:43.589Z,7.60
2022-11-05T05:45:13.894Z,7.70
2022-11-05T05:47:41.930Z,7.70
2022-11-05T05:50:10.283Z,7.70
2022-11-05T05:52:38.503Z,7.60
2022-11-05T05:55:07.249Z,7.60
2022-11-05T05:57:35.472Z,7.60
2022-11-05T06:00:04.834Z,7.70
2022-11-05T06:02:41.566Z,7.70
2022-11-05T06:05:11.017Z,7.70
2022-11-05T06:07:39.115Z,7.70
2022-11-05T06:10:07.981Z,7.70
2022-11-05T06:12:36.159Z,7.70
2022-11-05T06:15:04.827Z,7.70
2022-11-05T06:17:34.544Z,7.70
2022-11-05T06:20:04.312Z,7.70
2022-11-05T06:22:32.368Z,7.70
2022-11-05T06:25:00.519Z,7.70
2022-11-05T06:27:29.902Z,7.70
2022-11-05T06:29:58.029Z,7.70
2022-11-05T06:32:26.117Z,7.70
2022-11-05T06:34:54.182Z,7.70
2022-11-05T06:37:23.575Z,7.70
2022-11-05T06:39:51.615Z,8.00
2022-11-05T06:42:19.714Z,7.70
2022-11-05T06:44:48.149Z,7.70
2022-11-05T06:47:16.196Z,7.70
2022-11-05T06:49:44.901Z,7.70
2022-11-05T06:52:13.169Z,7.70
2022-11-05T06:54:43.901Z,7.70
2022-11-05T06:57:13.102Z,7.70
2022-11-05T06:59:41.729Z,7.70
2022-11-05T07:02:13.952Z,7.70
2022-11-05T07:04:42.041Z,7.70
2022-11-05T07:07:10.112Z,7.70
2022-11-05T07:09:40.440Z,7.80
2022-11-05T07:12:10.386Z,7.80
2022-11-05T07:14:38.412Z,7.90
2022-11-05T07:17:06.418Z,7.90
2022-11-05T07:19:34.765Z,8.00
2022-11-05T07:22:02.781Z,8.00
2022-11-05T07:24:30.919Z,8.00
2022-11-05T07:26:58.898Z,8.00
2022-11-05T07:29:28.218Z,8.00
2022-11-05T07:31:56.232Z,8.10
2022-11-05T07:34:24.312Z,8.00
2022-11-05T07:36:52.366Z,8.00
2022-11-05T07:39:20.688Z,8.00
2022-11-05T07:41:48.721Z,8.00
2022-11-05T07:44:17.551Z,8.00
2022-11-05T07:46:46.874Z,8.00
2022-11-05T07:49:15.191Z,8.00
2022-11-05T07:51:43.515Z,8.00
2022-11-05T07:54:11.931Z,8.00
2022-11-05T07:56:39.956Z,8.00
2022-11-05T07:59:08.170Z,8.00
2022-11-05T08:01:36.392Z,8.20
2022-11-05T08:04:06.089Z,8.20
2022-11-05T08:06:34.491Z,8.30
2022-11-05T08:09:02.870Z,8.50
2022-11-05T08:11:30.883Z,8.60
2022-11-05T08:13:58.932Z,8.60
2022-11-05T08:16:26.955Z,8.60
2022-11-05T08:18:54.965Z,8.40
2022-11-05T08:21:24.381Z,8.40
2022-11-05T08:23:52.411Z,8.40
2022-11-05T08:26:20.591Z,8.40
2022-11-05T08:28:48.641Z,8.50
2022-11-05T08:31:18.079Z,8.60
2022-11-05T08:33:46.267Z,8.70
2022-11-05T08:36:14.746Z,8.90
2022-11-05T08:38:44.267Z,8.60
2022-11-05T08:41:12.341Z,8.60
2022-11-05T08:43:40.368Z,8.60
2022-11-05T08:46:08.549Z,8.60
2022-11-05T08:48:36.560Z,8.60
2022-11-05T08:51:04.618Z,8.70
2022-11-05T08:53:32.637Z,8.80
2022-11-05T08:56:01.997Z,8.90
2022-11-05T08:58:30.044Z,9.00
2022-11-05T09:01:04.470Z,9.10
2022-11-05T09:03:33.205Z,9.20
2022-11-05T09:06:01.217Z,9.10
2022-11-05T09:08:29.375Z,9.00
2022-11-05T09:10:57.616Z,9.00
2022-11-05T09:13:27.630Z,9.00
2022-11-05T09:15:56.144Z,9.10
2022-11-05T09:18:24.320Z,9.00
2022-11-05T09:20:52.660Z,9.00
2022-11-05T09:23:20.690Z,9.00
2022-11-05T09:25:48.988Z,8.90
2022-11-05T09:28:18.957Z,8.90
2022-11-05T09:30:50.091Z,9.00
2022-11-05T09:33:24.103Z,9.10
2022-11-05T09:35:53.660Z,9.20
2022-11-05T09:38:21.919Z,9.30
2022-11-05T09:40:57.730Z,9.40
2022-11-05T09:43:31.936Z,9.40
2022-11-05T09:46:06.983Z,9.40
2022-11-05T09:48:36.298Z,9.40
2022-11-05T09:51:05.567Z,9.50
2022-11-05T09:53:36.894Z,9.60
2022-11-05T09:56:05.324Z,9.80
2022-11-05T09:58:40.150Z,10.00
2022-11-05T10:01:15.795Z,10.20
2022-11-05T10:03:47.181Z,10.40
2022-11-05T10:06:20.526Z,10.50
2022-11-05T10:08:53.705Z,10.50
2022-11-05T10:11:26.530Z,10.50
2022-11-05T10:13:58.312Z,10.50
2022-11-05T10:16:31.895Z,10.50
2022-11-05T10:19:04.088Z,10.40
2022-11-05T10:22:04.418Z,10.40
2022-11-05T10:24:21.981Z,10.30
2022-11-05T10:26:53.359Z,10.30
2022-11-05T10:29:26.929Z,10.40
2022-11-05T10:31:57.995Z,10.50
2022-11-05T10:34:29.936Z,10.70
2022-11-05T10:36:58.206Z,11.00
2022-11-05T10:39:27.582Z,11.20
2022-11-05T10:42:25.350Z,11.40
2022-11-05T10:44:59.276Z,11.40
2022-11-05T10:47:48.734Z,11.40
2022-11-05T10:50:19.977Z,11.40
2022-11-05T10:52:56.488Z,11.40
2022-11-05T10:55:27.633Z,11.30
2022-11-05T10:57:57.122Z,11.30
2022-11-05T11:00:29.292Z,11.20
2022-11-05T11:03:01.236Z,11.10
2022-11-05T11:05:32.522Z,11.10
2022-11-05T11:08:22.891Z,11.20
2022-11-05T11:10:53.376Z,11.30
2022-11-05T11:13:23.539Z,11.20
2022-11-05T11:15:51.770Z,11.30
2022-11-05T11:18:37.321Z,11.20
2022-11-05T11:21:13.962Z,11.10
2022-11-05T11:23:43.832Z,11.20
2022-11-05T11:26:14.081Z,11.20
2022-11-05T11:28:47.109Z,11.30
2022-11-05T11:31:17.567Z,11.30
2022-11-05T11:33:51.281Z,11.20
2022-11-05T11:36:25.196Z,11.20
2022-11-05T11:39:00.206Z,11.10
2022-11-05T11:41:32.216Z,11.00
2022-11-05T11:44:05.483Z,11.00
2022-11-05T11:46:35.150Z,11.00
2022-11-05T11:49:06.837Z,11.00
2022-11-05T11:51:40.445Z,11.10
2022-11-05T11:54:20.991Z,11.20
2022-11-05T11:56:49.902Z,11.40
2022-11-05T11:59:40.881Z,11.50
2022-11-05T12:02:38.217Z,11.50
2022-11-05T12:05:30.682Z,11.30
2022-11-05T12:08:06.536Z,11.10
2022-11-05T12:10:46.576Z,11.10
2022-11-05T12:13:42.742Z,10.90
2022-11-05T12:16:17.921Z,10.90
2022-11-05T12:18:52.609Z,10.80
2022-11-05T12:21:50.848Z,10.90
2022-11-05T12:24:46.837Z,10.80
2022-11-05T12:27:26.826Z,10.80
2022-11-05T12:30:02.415Z,10.60
2022-11-05T12:32:48.176Z,10.60
2022-11-05T12:35:31.399Z,10.60
2022-11-05T12:38:09.201Z,10.60
2022-11-05T12:40:50.257Z,10.60
2022-11-05T12:43:27.103Z,10.50
2022-11-05T12:46:03.413Z,10.50
2022-11-05T12:48:54.856Z,10.50
2022-11-05T12:51:36.539Z,10.60
2022-11-05T12:54:18.123Z,10.60
2022-11-05T12:56:49.501Z,10.80
2022-11-05T12:59:22.915Z,11.00
2022-11-05T13:01:58.026Z,11.10
2022-11-05T13:04:36.933Z,11.20
2022-11-05T13:07:10.556Z,11.20
2022-11-05T13:09:45.167Z,11.20
2022-11-05T13:12:15.918Z,11.20
2022-11-05T13:14:48.354Z,11.90
2022-11-05T13:17:19.758Z,12.80
2022-11-05T13:19:52.557Z,13.20
2022-11-05T13:22:34.478Z,13.70
2022-11-05T13:25:08.095Z,13.80
2022-11-05T13:27:59.378Z,13.70
2022-11-05T13:30:31.355Z,13.30
2022-11-05T13:33:02.959Z,12.90
2022-11-05T13:35:35.428Z,12.70
2022-11-05T13:38:24.627Z,12.50
2022-11-05T13:41:08.255Z,12.40
2022-11-05T13:44:01.366Z,12.10
2022-11-05T13:46:47.975Z,12.00
2022-11-05T13:49:32.073Z,12.10
2022-11-05T13:52:14.734Z,12.30
2022-11-05T13:55:13.470Z,14.90
2022-11-05T13:58:08.411Z,17.90
2022-11-05T14:00:41.789Z,17.40
2022-11-05T14:03:19.030Z,16.20
2022-11-05T14:05:55.509Z,15.10
2022-11-05T14:08:27.734Z,14.20
2022-11-05T14:11:01.722Z,13.70
2022-11-05T14:13:35.301Z,13.30
2022-11-05T14:16:07.500Z,12.90
2022-11-05T14:18:39.258Z,12.70
2022-11-05T14:21:28.059Z,12.50
2022-11-05T14:23:57.358Z,12.30
2022-11-05T14:26:26.913Z,12.10
2022-11-05T14:29:25.274Z,12.00
2022-11-05T14:32:09.473Z,11.90
2022-11-05T14:34:43.893Z,11.90
2022-11-05T14:37:37.483Z,11.90
2022-11-05T14:40:29.890Z,11.90
2022-11-05T14:43:00.889Z,11.80
2022-11-05T14:45:33.307Z,11.50
2022-11-05T14:48:03.906Z,11.30
2022-11-05T14:50:36.821Z,11.20
2022-11-05T14:53:13.800Z,11.10
2022-11-05T14:55:44.345Z,10.90
2022-11-05T14:58:40.535Z,10.70
2022-11-05T15:01:30.774Z,10.70
2022-11-05T15:04:17.172Z,10.60
2022-11-05T15:07:14.723Z,10.60
2022-11-05T15:09:46.988Z,10.50
2022-11-05T15:12:20.860Z,10.30
2022-11-05T15:14:56.840Z,10.20
2022-11-05T15:17:29.896Z,10.10
2022-11-05T15:20:09.999Z,10.00
2022-11-05T15:22:41.445Z,9.90
2022-11-05T15:25:18.703Z,9.70
2022-11-05T15:28:02.292Z,9.50
2022-11-05T15:30:31.011Z,9.40
2022-11-05T15:33:11.701Z,9.20
2022-11-05T15:35:42.459Z,9.10
2022-11-05T15:38:27.564Z,9.00
2022-11-05T15:41:01.136Z,8.90
2022-11-05T15:43:29.566Z,8.90
2022-11-05T15:46:07.012Z,8.60
2022-11-05T15:48:37.619Z,8.70
2022-11-05T15:51:06.079Z,8.60
2022-11-05T15:54:02.249Z,8.50
2022-11-05T15:56:30.623Z,8.40
2022-11-05T15:59:03.195Z,8.30
2022-11-05T16:01:34.457Z,8.20
2022-11-05T16:04:19.357Z,8.10
2022-11-05T16:06:49.855Z,8.10
2022-11-05T16:09:24.279Z,8.10
2022-11-05T16:12:10.227Z,8.10
2022-11-05T16:14:38.722Z,8.00
2022-11-05T16:17:18.324Z,8.00
2022-11-05T16:19:48.496Z,8.00
2022-11-05T16:22:17.038Z,7.90
2022-11-05T16:24:45.888Z,7.90
2022-11-05T16:27:19.300Z,7.80
2022-11-05T16:29:53.311Z,7.80
2022-11-05T16:32:30.196Z,8.00
2022-11-05T16:35:03.081Z,7.70
2022-11-05T16:37:37.588Z,7.60
2022-11-05T16:40:14.257Z,7.60
2022-11-05T16:42:43.816Z,7.50
2022-11-05T16:45:14.723Z,7.40
2022-11-05T16:47:44.005Z,7.20
2022-11-05T16:50:23.917Z,7.20
2022-11-05T16:52:52.620Z,7.10
2022-11-05T16:55:21.058Z,7.20
2022-11-05T16:57:53.003Z,7.20
2022-11-05T17:00:22.186Z,7.10
2022-11-05T17:02:50.694Z,7.20
2022-11-05T17:05:25.607Z,7.20
2022-11-05T17:07:54.211Z,7.20
2022-11-05T17:10:23.328Z,7.30
2022-11-05T17:12:51.891Z,7.20
2022-11-05T17:15:22.704Z,7.20
2022-11-05T17:17:51.772Z,7.30
2022-11-05T17:20:39.952Z,7.30
2022-11-05T17:23:10.577Z,7.30
2022-11-05T17:25:39.308Z,7.30
2022-11-05T17:28:08.467Z,7.20
2022-11-05T17:30:38.066Z,7.20
2022-11-05T17:33:08.525Z,7.20
2022-11-05T17:35:40.487Z,7.20
2022-11-05T17:38:08.930Z,7.20
2022-11-05T17:40:38.391Z,7.20
2022-11-05T17:43:07.279Z,7.10
2022-11-05T17:45:35.835Z,7.10
2022-11-05T17:48:05.001Z,7.10
2022-11-05T17:50:33.055Z,7.10
2022-11-05T17:53:02.465Z,7.10
2022-11-05T17:55:30.570Z,7.10
2022-11-05T17:57:58.686Z,7.20
2022-11-05T18:00:27.265Z,7.00
2022-11-05T18:02:55.885Z,7.00
2022-11-05T18:05:24.342Z,7.00
2022-11-05T18:07:52.788Z,7.00
2022-11-05T18:10:22.887Z,7.00
2022-11-05T18:12:51.867Z,6.90
2022-11-05T18:15:20.407Z,6.90
2022-11-05T18:17:48.835Z,6.90
2022-11-05T18:20:19.559Z,6.90
2022-11-05T18:22:50.658Z,6.90
2022-11-05T18:25:19.427Z,6.90
2022-11-05T18:27:48.948Z,6.90
2022-11-05T18:30:17.162Z,6.80
2022-11-05T18:32:45.640Z,6.80
2022-11-05T18:35:14.411Z,6.80
2022-11-05T18:37:42.547Z,6.80
2022-11-05T18:40:11.679Z,6.80
2022-11-05T18:42:39.976Z,6.80
2022-11-05T18:45:11.208Z,6.80
2022-11-05T18:47:39.837Z,6.80
2022-11-05T18:50:10.349Z,6.80
2022-11-05T18:52:38.490Z,6.80
2022-11-05T18:55:07.822Z,6.80
2022-11-05T18:57:36.108Z,6.80
2022-11-05T19:00:06.041Z,6.90
2022-11-05T19:02:35.729Z,6.80
2022-11-05T19:07:52.260Z,6.70
2022-11-05T19:10:20.583Z,6.70
2022-11-05T19:12:48.765Z,6.70
2022-11-05T19:15:16.939Z,6.60
2022-11-05T19:17:46.772Z,6.60
2022-11-05T19:20:14.897Z,6.50
2022-11-05T19:22:43.064Z,6.50
2022-11-05T19:25:11.146Z,6.50
2022-11-05T19:27:39.264Z,6.40
2022-11-05T19:30:08.351Z,6.40
2022-11-05T19:32:36.638Z,6.40
2022-11-05T19:35:06.553Z,6.40
2022-11-05T19:37:34.744Z,6.30
2022-11-05T19:40:02.888Z,6.30
2022-11-05T19:42:30.960Z,6.30
2022-11-05T19:45:16.766Z,6.40
2022-11-05T19:47:47.352Z,6.30
2022-11-05T19:50:16.743Z,6.30
2022-11-05T19:52:44.794Z,6.30
2022-11-05T19:55:13.109Z,6.30
2022-11-05T19:57:41.357Z,6.30
2022-11-05T20:00:10.706Z,6.30
2022-11-05T20:02:44.728Z,6.20
2022-11-05T20:05:13.003Z,6.30
2022-11-05T20:07:42.656Z,6.30
2022-11-05T20:10:11.375Z,6.30
2022-11-05T20:12:40.171Z,6.30
2022-11-05T20:15:09.329Z,6.30
2022-11-05T20:17:39.141Z,6.40
2022-11-05T20:20:08.653Z,6.30
2022-11-05T20:22:36.825Z,6.40
2022-11-05T20:25:07.474Z,6.40
2022-11-05T20:27:35.535Z,6.50
2022-11-05T20:30:03.840Z,6.40
2022-11-05T20:32:32.027Z,6.40
2022-11-05T20:35:00.274Z,6.50
2022-11-05T20:37:28.577Z,6.50
2022-11-05T20:39:56.736Z,6.50
2022-11-05T20:42:26.188Z,6.50
2022-11-05T20:44:54.644Z,6.50
2022-11-05T20:47:22.909Z,6.50
2022-11-05T20:49:51.010Z,6.50
2022-11-05T20:52:19.156Z,6.50
2022-11-05T20:54:47.391Z,6.60
2022-11-05T20:57:15.428Z,6.60
2022-11-05T20:59:45.188Z,6.60
2022-11-05T21:02:13.920Z,6.60
2022-11-05T21:04:42.552Z,6.60
2022-11-05T21:07:10.762Z,6.70
2022-11-05T21:09:38.851Z,6.70
2022-11-05T21:12:13.290Z,6.70
2022-11-05T21:14:44.395Z,6.70
2022-11-05T21:17:13.488Z,6.70
2022-11-05T21:19:41.565Z,6.70
2022-11-05T21:22:10.146Z,6.70
2022-11-05T21:24:38.347Z,6.70
2022-11-05T21:27:06.414Z,6.70
2022-11-05T21:29:34.895Z,6.70
2022-11-05T21:32:05.308Z,6.70
2022-11-05T21:34:33.392Z,6.70
2022-11-05T21:37:01.469Z,6.70
2022-11-05T21:39:29.564Z,6.70
2022-11-05T21:41:57.822Z,6.70
2022-11-05T21:44:25.988Z,6.80
2022-11-05T21:46:57.391Z,6.70
2022-11-05T21:49:26.955Z,6.80
2022-11-05T21:52:12.779Z,6.80
2022-11-05T21:54:58.203Z,6.90
2022-11-05T21:57:43.598Z,6.90
2022-11-05T22:00:13.029Z,6.80
2022-11-05T22:02:41.285Z,6.80
2022-11-05T22:05:11.322Z,6.80
2022-11-05T22:07:40.298Z,6.70
2022-11-05T22:10:15.640Z,6.70
2022-11-05T22:12:45.030Z,6.80
2022-11-05T22:15:13.557Z,6.80
2022-11-05T22:17:46.584Z,6.80
2022-11-05T22:20:16.648Z,6.80
2022-11-05T22:22:45.001Z,6.80
2022-11-05T22:25:14.239Z,6.80
2022-11-05T22:27:43.776Z,6.80
2022-11-05T22:30:13.290Z,6.80
2022-11-05T22:32:41.412Z,6.80
2022-11-05T22:35:10.312Z,6.90
2022-11-05T22:37:39.808Z,6.80
2022-11-05T22:40:08.639Z,6.70
2022-11-05T22:42:36.745Z,6.70
2022-11-05T22:45:05.353Z,6.70
2022-11-05T22:47:33.412Z,6.70
2022-11-05T22:50:01.478Z,6.70
2022-11-05T22:52:29.676Z,6.60
2022-11-05T22:54:59.042Z,6.50
2022-11-05T22:57:27.083Z,6.50
2022-11-05T22:59:55.120Z,6.50
2022-11-05T23:02:23.309Z,6.60
2022-11-05T23:04:52.403Z,6.50
2022-11-05T23:07:37.783Z,6.50
2022-11-05T23:10:26.268Z,6.40
2022-11-05T23:12:56.311Z,6.40
2022-11-05T23:15:41.728Z,6.40
2022-11-05T23:18:27.817Z,6.30
2022-11-05T23:21:13.218Z,6.30
2022-11-05T23:23:58.716Z,6.20
2022-11-05T23:26:45.569Z,6.20
2022-11-05T23:29:13.628Z,6.20
2022-11-05T23:31:59.310Z,6.10
2022-11-05T23:34:27.648Z,6.10
2022-11-05T23:37:13.056Z,6.00
2022-11-05T23:39:42.875Z,5.80
2022-11-05T23:42:30.360Z,5.80
2022-11-05T23:45:16.569Z,5.70
2022-11-05T23:48:02.507Z,5.70
2022-11-05T23:50:35.640Z,5.60
2022-11-05T23:53:08.273Z,5.60
2022-11-05T23:55:36.466Z,5.60
2022-11-05T23:58:06.209Z,5.70
